createdAt,value
2019-02-28T00:01:56.387Z,15.28
2019-02-28T00:04:25.532Z,18.12
2019-02-28T00:06:55.695Z,19.17
2019-02-28T00:09:25.707Z,17.02
2019-02-28T00:11:55.675Z,16.07
2019-02-28T00:14:27.777Z,15.05
2019-02-28T00:16:59.202Z,19.30
2019-02-28T00:19:30.399Z,16.40
2019-02-28T00:22:00.408Z,19.27
2019-02-28T00:24:31.776Z,17.27
2019-02-28T00:27:01.531Z,15.65
2019-02-28T00:29:33.710Z,16.87
2019-02-28T00:32:02.544Z,14.70
2019-02-28T00:34:32.410Z,16.80
2019-02-28T00:37:04.640Z,16.00
2019-02-28T00:39:34.812Z,16.80
2019-02-28T00:42:05.838Z,15.00
2019-02-28T00:44:35.092Z,13.30
2019-02-28T00:47:04.229Z,14.07
2019-02-28T00:49:33.362Z,14.18
2019-02-28T00:52:02.921Z,12.90
2019-02-28T00:54:34.017Z,14.03
2019-02-28T00:57:04.085Z,12.80
2019-02-28T00:59:33.299Z,11.83
2019-02-28T01:02:03.331Z,13.40
2019-02-28T01:04:32.563Z,13.40
2019-02-28T01:07:06.080Z,14.33
2019-02-28T01:09:35.236Z,12.25
2019-02-28T01:12:05.449Z,16.70
2019-02-28T01:14:36.655Z,15.25
2019-02-28T01:17:07.044Z,14.18
2019-02-28T01:19:53.966Z,16.50
2019-02-28T01:22:23.111Z,13.62
2019-02-28T01:24:56.417Z,14.70
2019-02-28T01:27:25.715Z,12.63
2019-02-28T01:29:54.868Z,14.63
2019-02-28T01:32:24.376Z,12.58
2019-02-28T01:34:53.947Z,12.60
2019-02-28T01:37:28.158Z,13.32
2019-02-28T01:40:01.038Z,14.30
2019-02-28T01:42:29.572Z,15.88
2019-02-28T01:45:16.576Z,14.03
2019-02-28T01:47:45.714Z,15.32
2019-02-28T01:50:14.882Z,15.18
2019-02-28T01:52:45.861Z,17.07
2019-02-28T01:55:15.225Z,14.47
2019-02-28T01:57:44.487Z,14.68
2019-02-28T02:00:16.129Z,15.00
2019-02-28T02:02:45.371Z,15.08
2019-02-28T02:05:17.299Z,19.37
2019-02-28T02:07:49.590Z,13.22
2019-02-28T02:10:23.423Z,14.28
2019-02-28T02:12:52.576Z,16.10
2019-02-28T02:15:21.723Z,16.97
2019-02-28T02:17:50.871Z,16.17
2019-02-28T02:20:20.022Z,18.07
2019-02-28T02:22:49.474Z,16.93
2019-02-28T02:25:18.652Z,14.83
2019-02-28T02:27:52.819Z,17.02
2019-02-28T02:30:22.841Z,16.85
2019-02-28T02:32:53.293Z,18.37
2019-02-28T02:35:22.479Z,14.65
2019-02-28T02:37:51.687Z,17.70
2019-02-28T02:40:23.082Z,19.95
2019-02-28T02:42:54.153Z,16.97
2019-02-28T02:45:23.302Z,18.20
2019-02-28T02:47:53.368Z,21.52
2019-02-28T02:50:23.316Z,18.48
2019-02-28T02:52:52.531Z,16.97
2019-02-28T02:55:27.912Z,16.17
2019-02-28T02:57:52.525Z,19.62
2019-02-28T03:00:21.666Z,19.42
2019-02-28T03:02:50.880Z,19.60
2019-02-28T03:05:20.094Z,18.85
2019-02-28T03:07:49.250Z,17.50
2019-02-28T03:10:19.700Z,19.67
2019-02-28T03:12:49.744Z,17.65
2019-02-28T03:15:24.800Z,20.27
2019-02-28T03:17:50.889Z,18.35
2019-02-28T03:20:20.070Z,20.70
2019-02-28T03:22:49.965Z,19.90
2019-02-28T03:25:27.442Z,21.33
2019-02-28T03:27:56.380Z,21.57
2019-02-28T03:30:29.379Z,23.87
2019-02-28T03:32:53.450Z,23.50
2019-02-28T03:35:22.603Z,22.05
2019-02-28T03:37:51.832Z,22.20
2019-02-28T03:40:20.968Z,22.02
2019-02-28T03:42:51.798Z,23.65
2019-02-28T03:45:20.999Z,23.10
2019-02-28T03:47:50.205Z,25.88
2019-02-28T03:50:21.980Z,24.90
2019-02-28T03:52:50.548Z,23.18
2019-02-28T03:55:19.705Z,25.15
2019-02-28T03:57:48.839Z,26.82
2019-02-28T04:00:23.227Z,22.90
2019-02-28T04:02:57.067Z,23.15
2019-02-28T04:05:27.965Z,21.82
2019-02-28T04:07:57.171Z,25.12
2019-02-28T04:10:27.519Z,22.58
2019-02-28T04:12:58.288Z,24.35
2019-02-28T04:15:30.432Z,24.98
2019-02-28T04:18:06.856Z,23.47
2019-02-28T04:20:36.085Z,27.30
2019-02-28T04:23:01.345Z,26.80
2019-02-28T04:25:31.835Z,26.27
2019-02-28T04:28:01.064Z,26.45
2019-02-28T04:30:31.934Z,25.77
2019-02-28T04:33:01.697Z,28.05
2019-02-28T04:35:34.542Z,27.25
2019-02-28T04:38:04.736Z,30.70
2019-02-28T04:40:34.022Z,30.15
2019-02-28T04:43:03.199Z,28.45
2019-02-28T04:45:33.663Z,26.23
2019-02-28T04:48:02.904Z,29.15
2019-02-28T04:50:34.400Z,31.48
2019-02-28T04:53:03.590Z,29.10
2019-02-28T04:55:34.220Z,30.55
2019-02-28T04:58:04.773Z,30.17
2019-02-28T05:00:34.258Z,29.70
2019-02-28T05:03:04.229Z,29.30
2019-02-28T05:05:34.276Z,32.13
2019-02-28T05:08:05.813Z,30.90
2019-02-28T05:10:35.440Z,34.58
2019-02-28T05:13:04.594Z,31.80
2019-02-28T05:15:37.314Z,32.53
2019-02-28T05:18:04.582Z,35.00
2019-02-28T05:20:33.733Z,34.70
2019-02-28T05:23:04.221Z,35.50
2019-02-28T05:25:33.389Z,39.18
2019-02-28T05:28:02.676Z,38.80
2019-02-28T05:30:31.895Z,36.40
2019-02-28T05:33:01.034Z,38.67
2019-02-28T05:35:30.178Z,37.13
2019-02-28T05:37:59.318Z,39.38
2019-02-28T05:40:28.493Z,36.93
2019-02-28T05:42:59.233Z,39.90
2019-02-28T05:45:29.615Z,40.00
2019-02-28T05:47:58.817Z,40.83
2019-02-28T05:50:27.947Z,37.98
2019-02-28T05:52:57.094Z,38.78
2019-02-28T05:55:26.249Z,39.80
2019-02-28T05:57:55.403Z,41.25
2019-02-28T06:00:25.578Z,38.90
2019-02-28T06:03:02.598Z,36.63
2019-02-28T06:05:32.417Z,41.13
2019-02-28T06:08:03.546Z,41.20
2019-02-28T06:10:34.025Z,41.00
2019-02-28T06:13:03.160Z,40.00
2019-02-28T06:15:34.189Z,41.53
2019-02-28T06:18:03.169Z,42.23
2019-02-28T06:20:32.298Z,44.30
2019-02-28T06:23:01.453Z,42.43
2019-02-28T06:25:30.686Z,44.90
2019-02-28T06:27:59.841Z,44.13
2019-02-28T06:30:29.026Z,46.58
2019-02-28T06:32:59.598Z,42.90
2019-02-28T06:35:28.923Z,49.70
2019-02-28T06:37:58.085Z,43.38
2019-02-28T06:40:32.805Z,45.33
2019-02-28T06:43:01.452Z,48.73
2019-02-28T06:45:36.654Z,51.65
2019-02-28T06:48:03.222Z,47.93
2019-02-28T06:50:32.375Z,45.38
2019-02-28T06:53:01.533Z,47.45
2019-02-28T06:55:30.661Z,45.98
2019-02-28T06:57:59.887Z,48.20
2019-02-28T07:00:29.023Z,51.65
2019-02-28T07:02:58.171Z,50.23
2019-02-28T07:05:28.423Z,49.18
2019-02-28T07:07:57.565Z,49.15
2019-02-28T07:10:26.731Z,51.77
2019-02-28T07:12:55.975Z,52.53
2019-02-28T07:15:25.185Z,57.17
2019-02-28T07:17:54.339Z,53.28
2019-02-28T07:20:23.491Z,55.43
2019-02-28T07:22:55.577Z,56.35
2019-02-28T07:25:23.547Z,58.50
2019-02-28T07:27:52.711Z,59.73
2019-02-28T07:30:21.910Z,58.42
2019-02-28T07:32:51.076Z,58.35
2019-02-28T07:35:20.278Z,56.30
2019-02-28T07:37:53.214Z,62.00
2019-02-28T07:40:20.298Z,60.63
2019-02-28T07:42:49.510Z,57.50
2019-02-28T07:45:18.676Z,66.20
2019-02-28T07:47:51.786Z,63.20
2019-02-28T07:50:18.686Z,58.58
2019-02-28T07:52:47.932Z,64.10
2019-02-28T07:55:18.807Z,63.35
2019-02-28T07:57:53.291Z,68.60
2019-02-28T08:00:25.491Z,66.20
2019-02-28T08:02:54.667Z,69.25
2019-02-28T08:05:30.083Z,66.45
2019-02-28T08:07:57.352Z,69.55
2019-02-28T08:10:32.092Z,67.58
2019-02-28T08:13:03.027Z,71.65
2019-02-28T08:15:32.154Z,69.35
2019-02-28T08:18:01.303Z,68.45
2019-02-28T08:20:34.037Z,71.33
2019-02-28T08:23:06.480Z,74.07
2019-02-28T08:25:35.650Z,72.90
2019-02-28T08:28:23.079Z,75.60
2019-02-28T08:30:55.345Z,72.00
2019-02-28T08:33:23.138Z,77.12
2019-02-28T08:35:52.688Z,71.95
2019-02-28T08:39:08.765Z,83.37
2019-02-28T08:41:36.931Z,80.57
2019-02-28T08:44:06.063Z,77.72
2019-02-28T08:46:37.146Z,80.38
2019-02-28T08:49:07.205Z,75.12
2019-02-28T08:51:36.612Z,78.87
2019-02-28T08:54:06.163Z,78.97
2019-02-28T08:56:36.452Z,72.58
2019-02-28T08:59:11.785Z,70.92
2019-02-28T09:01:40.089Z,77.70
2019-02-28T09:04:07.369Z,77.92
2019-02-28T09:06:37.900Z,76.05
2019-02-28T09:09:09.414Z,75.55
2019-02-28T09:11:38.650Z,76.45
2019-02-28T09:14:07.798Z,77.82
2019-02-28T09:16:39.703Z,74.97
2019-02-28T09:19:08.771Z,74.10
2019-02-28T09:21:37.924Z,76.12
2019-02-28T09:24:09.399Z,80.35
2019-02-28T09:26:37.990Z,70.62
2019-02-28T09:29:07.203Z,71.28
2019-02-28T09:31:39.084Z,75.83
2019-02-28T09:34:11.759Z,80.60
2019-02-28T09:36:40.977Z,75.15
2019-02-28T09:39:10.126Z,77.40
2019-02-28T09:41:40.160Z,76.25
2019-02-28T09:44:10.132Z,79.85
2019-02-28T09:46:39.278Z,75.55
2019-02-28T09:49:11.990Z,76.72
2019-02-28T09:51:39.307Z,79.00
2019-02-28T09:54:08.474Z,78.17
2019-02-28T09:56:37.695Z,82.90
2019-02-28T09:59:07.112Z,76.67
2019-02-28T10:01:37.155Z,75.50
2019-02-28T10:04:06.316Z,71.53
2019-02-28T10:06:35.532Z,71.67
2019-02-28T10:09:08.786Z,72.05
2019-02-28T10:11:36.686Z,70.57
2019-02-28T10:14:05.828Z,71.97
2019-02-28T10:16:35.017Z,74.20
2019-02-28T10:19:05.246Z,70.50
2019-02-28T10:21:36.441Z,76.40
2019-02-28T10:24:05.446Z,72.95
2019-02-28T10:26:34.594Z,70.55
2019-02-28T10:29:04.563Z,74.25
2019-02-28T10:31:38.200Z,69.40
2019-02-28T10:34:05.517Z,71.57
2019-02-28T10:36:34.767Z,70.95
2019-02-28T10:39:05.937Z,72.27
2019-02-28T10:41:36.211Z,71.47
2019-02-28T10:44:05.372Z,71.65
2019-02-28T10:46:36.033Z,66.95
2019-02-28T10:49:05.519Z,67.92
2019-02-28T10:51:35.097Z,71.40
2019-02-28T10:54:04.255Z,70.72
2019-02-28T10:56:33.794Z,71.37
2019-02-28T10:59:03.027Z,74.45
2019-02-28T11:01:32.170Z,70.45
2019-02-28T11:04:01.427Z,65.90
2019-02-28T11:06:30.584Z,68.80
2019-02-28T11:08:59.744Z,72.22
2019-02-28T11:11:28.900Z,73.55
2019-02-28T11:13:58.043Z,74.00
2019-02-28T11:16:27.207Z,67.15
2019-02-28T11:18:56.503Z,71.22
2019-02-28T11:21:26.023Z,64.90
2019-02-28T11:23:55.208Z,70.85
2019-02-28T11:26:24.411Z,73.45
2019-02-28T11:28:53.604Z,72.45
2019-02-28T11:31:22.818Z,69.53
2019-02-28T11:33:51.968Z,74.82
2019-02-28T11:36:21.147Z,70.87
2019-02-28T11:38:52.449Z,71.72
2019-02-28T11:41:21.208Z,71.70
2019-02-28T11:43:50.367Z,71.45
2019-02-28T11:46:19.618Z,71.60
2019-02-28T11:48:50.982Z,70.40
2019-02-28T11:51:19.607Z,69.62
2019-02-28T11:53:48.780Z,71.35
2019-02-28T11:56:17.983Z,74.95
2019-02-28T11:58:51.318Z,75.20
2019-02-28T12:01:18.003Z,75.40
2019-02-28T12:03:47.185Z,74.27
2019-02-28T12:06:16.342Z,70.22
2019-02-28T12:08:45.770Z,74.35
2019-02-28T12:11:16.858Z,69.85
2019-02-28T12:13:45.995Z,79.53
2019-02-28T12:16:16.259Z,71.80
2019-02-28T12:18:46.014Z,67.60
2019-02-28T12:21:15.181Z,72.12
2019-02-28T12:23:44.341Z,64.55
2019-02-28T12:26:14.317Z,67.47
2019-02-28T12:28:45.266Z,69.12
2019-02-28T12:31:14.408Z,70.87
2019-02-28T12:33:43.554Z,66.67
2019-02-28T12:36:14.458Z,64.95
2019-02-28T12:38:44.515Z,68.33
2019-02-28T12:41:13.798Z,63.35
2019-02-28T12:43:43.021Z,59.58
2019-02-28T12:46:12.289Z,64.47
2019-02-28T12:48:41.532Z,62.62
2019-02-28T12:51:10.750Z,63.23
2019-02-28T12:53:39.915Z,67.70
2019-02-28T12:56:11.196Z,68.17
2019-02-28T12:58:41.664Z,67.53
2019-02-28T13:01:10.813Z,67.92
2019-02-28T13:03:40.046Z,66.17
2019-02-28T13:06:09.203Z,66.80
2019-02-28T13:08:41.337Z,64.50
2019-02-28T13:11:09.303Z,71.53
2019-02-28T13:13:38.476Z,69.70
2019-02-28T13:16:07.627Z,66.85
2019-02-28T13:18:39.539Z,69.50
2019-02-28T13:21:10.692Z,63.65
2019-02-28T13:23:39.422Z,65.78
2019-02-28T13:26:08.760Z,62.75
2019-02-28T13:28:37.928Z,64.32
2019-02-28T13:31:07.171Z,62.20
2019-02-28T13:33:36.444Z,61.88
2019-02-28T13:36:05.663Z,60.17
2019-02-28T13:38:34.814Z,61.92
2019-02-28T13:41:03.989Z,63.58
2019-02-28T13:43:33.230Z,64.05
2019-02-28T13:46:02.385Z,65.42
2019-02-28T13:48:33.932Z,65.92
2019-02-28T13:51:08.165Z,63.10
2019-02-28T13:53:35.083Z,62.17
2019-02-28T13:56:05.097Z,72.00
2019-02-28T13:58:34.581Z,62.70
2019-02-28T14:01:03.739Z,61.13
2019-02-28T14:03:32.900Z,63.78
2019-02-28T14:06:02.070Z,64.20
2019-02-28T14:08:31.274Z,61.73
2019-02-28T14:11:00.515Z,63.73
2019-02-28T14:13:34.743Z,67.12
2019-02-28T14:16:01.499Z,59.70
2019-02-28T14:18:30.640Z,72.80
2019-02-28T14:21:02.925Z,62.62
2019-02-28T14:23:30.664Z,61.02
2019-02-28T14:25:59.814Z,66.77
2019-02-28T14:28:28.981Z,72.67
2019-02-28T14:30:58.761Z,61.30
2019-02-28T14:33:28.131Z,68.67
2019-02-28T14:35:57.268Z,64.62
2019-02-28T14:38:29.645Z,66.25
2019-02-28T14:40:59.300Z,66.62
2019-02-28T14:43:28.240Z,64.85
2019-02-28T14:45:57.396Z,64.10
2019-02-28T14:48:29.188Z,68.47
2019-02-28T14:50:58.917Z,64.85
2019-02-28T14:53:28.244Z,63.17
2019-02-28T14:55:57.398Z,63.23
2019-02-28T14:58:26.625Z,67.20
2019-02-28T15:00:55.855Z,65.70
2019-02-28T15:03:25.020Z,69.97
2019-02-28T15:05:55.556Z,67.60
2019-02-28T15:08:26.987Z,66.60
2019-02-28T15:10:55.965Z,70.92
2019-02-28T15:13:25.127Z,71.62
2019-02-28T15:15:54.411Z,72.37
2019-02-28T15:18:23.707Z,70.97
2019-02-28T15:20:52.935Z,67.58
2019-02-28T15:23:22.113Z,72.80
2019-02-28T15:25:54.201Z,71.25
2019-02-28T15:28:22.232Z,76.20
2019-02-28T15:30:51.403Z,78.42
2019-02-28T15:33:20.566Z,73.87
2019-02-28T15:35:50.498Z,73.28
2019-02-28T15:38:19.797Z,73.22
2019-02-28T15:40:49.420Z,71.87
2019-02-28T15:43:18.620Z,76.75
2019-02-28T15:45:47.835Z,76.87
2019-02-28T15:48:17.083Z,70.70
2019-02-28T15:50:51.274Z,77.35
2019-02-28T15:53:18.974Z,78.10
2019-02-28T15:55:48.127Z,74.95
2019-02-28T15:58:17.300Z,82.27
2019-02-28T16:00:47.444Z,73.52
2019-02-28T16:03:17.389Z,75.97
2019-02-28T16:05:46.862Z,80.57
2019-02-28T16:08:16.094Z,78.75
2019-02-28T16:10:53.215Z,86.90
2019-02-28T16:13:22.612Z,81.42
2019-02-28T16:15:58.479Z,77.97
2019-02-28T16:18:30.520Z,86.05
2019-02-28T16:20:59.764Z,81.47
2019-02-28T16:23:31.085Z,82.60
2019-02-28T16:26:00.114Z,84.35
2019-02-28T16:28:29.324Z,96.00
2019-02-28T16:30:58.625Z,88.05
2019-02-28T16:33:27.888Z,89.47
2019-02-28T16:35:57.276Z,87.22
2019-02-28T16:38:28.063Z,95.95
2019-02-28T16:40:57.694Z,94.20
2019-02-28T16:43:28.089Z,88.80
2019-02-28T16:45:57.368Z,86.17
2019-02-28T16:48:26.616Z,92.45
2019-02-28T16:50:56.959Z,86.72
2019-02-28T16:53:26.436Z,91.00
2019-02-28T16:55:55.632Z,92.10
2019-02-28T16:58:24.778Z,90.12
2019-02-28T17:00:53.965Z,86.80
2019-02-28T17:03:23.180Z,90.70
2019-02-28T17:05:52.342Z,94.20
2019-02-28T17:08:21.492Z,88.25
2019-02-28T17:10:50.836Z,86.67
2019-02-28T17:13:24.956Z,85.90
2019-02-28T17:16:01.192Z,90.65
2019-02-28T17:18:35.350Z,91.17
2019-02-28T17:21:04.495Z,86.50
2019-02-28T17:23:36.792Z,92.17
2019-02-28T17:26:04.607Z,91.45
2019-02-28T17:28:35.450Z,86.95
2019-02-28T17:31:22.909Z,93.70
2019-02-28T17:33:52.198Z,87.02
2019-02-28T17:36:21.365Z,91.22
2019-02-28T17:38:50.849Z,91.37
2019-02-28T17:41:20.000Z,90.60
2019-02-28T17:44:24.782Z,86.12
2019-02-28T17:47:00.488Z,86.85
2019-02-28T17:50:05.601Z,85.55
2019-02-28T17:52:52.636Z,89.20
2019-02-28T17:56:03.943Z,95.65
2019-02-28T17:59:08.541Z,88.20
2019-02-28T18:02:15.758Z,85.60
2019-02-28T18:04:58.555Z,90.03
2019-02-28T18:07:47.413Z,90.15
2019-02-28T18:10:55.770Z,82.00
2019-02-28T18:13:52.185Z,83.70
2019-02-28T18:16:29.276Z,86.22
2019-02-28T18:19:33.065Z,87.42
2019-02-28T18:22:08.239Z,85.97
2019-02-28T18:25:13.994Z,89.13
2019-02-28T18:27:52.520Z,84.83
2019-02-28T18:30:27.575Z,85.32
2019-02-28T18:32:58.075Z,86.37
2019-02-28T18:35:29.113Z,90.57
2019-02-28T18:38:00.802Z,84.35
2019-02-28T18:40:29.097Z,87.12
2019-02-28T18:42:58.314Z,83.55
2019-02-28T18:45:27.486Z,84.52
2019-02-28T18:47:56.629Z,96.05
2019-02-28T18:50:26.976Z,89.03
2019-02-28T18:52:56.230Z,92.78
2019-02-28T18:55:34.498Z,95.25
2019-02-28T18:57:56.323Z,92.62
2019-02-28T19:00:25.691Z,91.17
2019-02-28T19:02:55.098Z,88.33
2019-02-28T19:05:25.885Z,90.90
2019-02-28T19:07:55.358Z,91.87
2019-02-28T19:10:24.592Z,103.40
2019-02-28T19:12:54.711Z,103.60
2019-02-28T19:15:24.026Z,101.20
2019-02-28T19:17:53.455Z,98.78
2019-02-28T19:20:34.537Z,99.45
2019-02-28T19:23:03.747Z,101.00
2019-02-28T19:25:35.876Z,96.75
2019-02-28T19:28:05.146Z,94.10
2019-02-28T19:30:34.378Z,97.53
2019-02-28T19:33:03.593Z,100.25
2019-02-28T19:35:32.795Z,97.17
2019-02-28T19:38:02.152Z,96.30
2019-02-28T19:40:31.382Z,96.22
2019-02-28T19:43:00.631Z,106.60
2019-02-28T19:45:35.819Z,107.70
2019-02-28T19:48:04.977Z,103.32
2019-02-28T19:50:34.150Z,102.87
2019-02-28T19:53:03.386Z,107.97
2019-02-28T19:55:32.798Z,96.70
2019-02-28T19:58:02.082Z,103.20
2019-02-28T20:00:31.327Z,107.97
2019-02-28T20:03:00.568Z,108.55
2019-02-28T20:05:36.030Z,102.70
2019-02-28T20:08:05.345Z,98.37
2019-02-28T20:10:34.570Z,107.92
2019-02-28T20:13:04.889Z,99.03
2019-02-28T20:15:37.398Z,103.92
2019-02-28T20:18:06.659Z,109.60
2019-02-28T20:20:39.463Z,93.82
2019-02-28T20:23:12.066Z,102.15
2019-02-28T20:25:41.298Z,108.57
2019-02-28T20:28:10.475Z,100.47
2019-02-28T20:30:42.299Z,103.15
2019-02-28T20:33:14.679Z,106.50
2019-02-28T20:35:43.844Z,116.97
2019-02-28T20:38:15.253Z,107.47
2019-02-28T20:40:45.463Z,103.90
2019-02-28T20:43:14.608Z,109.45
2019-02-28T20:45:44.001Z,104.43
2019-02-28T20:48:13.647Z,100.85
2019-02-28T20:50:46.343Z,101.92
2019-02-28T20:53:15.632Z,102.35
2019-02-28T20:55:44.917Z,116.40
2019-02-28T20:58:16.012Z,108.97
2019-02-28T21:00:44.967Z,105.85
2019-02-28T21:03:14.199Z,104.20
2019-02-28T21:05:43.541Z,102.95
2019-02-28T21:08:12.819Z,108.52
2019-02-28T21:10:41.975Z,101.60
2019-02-28T21:13:12.304Z,107.85
2019-02-28T21:15:41.711Z,102.92
2019-02-28T21:18:12.203Z,109.63
2019-02-28T21:20:42.424Z,103.83
2019-02-28T21:23:11.699Z,100.15
2019-02-28T21:25:41.195Z,101.50
2019-02-28T21:28:10.421Z,101.18
2019-02-28T21:30:39.582Z,99.83
2019-02-28T21:33:08.893Z,97.75
2019-02-28T21:35:39.877Z,96.55
2019-02-28T21:38:09.126Z,97.47
2019-02-28T21:40:38.420Z,97.57
2019-02-28T21:43:07.651Z,95.32
2019-02-28T21:45:36.806Z,98.05
2019-02-28T21:48:05.966Z,88.95
2019-02-28T21:50:35.241Z,92.25
2019-02-28T21:53:04.395Z,88.30
2019-02-28T21:55:33.530Z,85.95
2019-02-28T21:58:02.814Z,83.85
2019-02-28T22:00:33.125Z,81.15
2019-02-28T22:03:02.444Z,86.02
2019-02-28T22:05:31.596Z,86.57
2019-02-28T22:08:00.762Z,83.12
2019-02-28T22:10:29.971Z,85.50
2019-02-28T22:12:59.771Z,80.07
2019-02-28T22:15:29.238Z,80.95
2019-02-28T22:17:58.459Z,79.32
2019-02-28T22:20:27.604Z,70.03
2019-02-28T22:22:56.879Z,73.37
2019-02-28T22:25:26.039Z,71.97
2019-02-28T22:27:55.198Z,81.15
2019-02-28T22:30:42.584Z,77.58
2019-02-28T22:33:46.037Z,76.28
2019-02-28T22:36:22.718Z,79.03
2019-02-28T22:38:51.866Z,77.58
2019-02-28T22:41:21.011Z,72.95
2019-02-28T22:43:50.242Z,77.85
2019-02-28T22:46:19.458Z,79.00
2019-02-28T22:48:48.606Z,76.97
2019-02-28T22:51:17.742Z,75.15
2019-02-28T22:53:46.896Z,67.87
2019-02-28T22:56:16.067Z,75.15
2019-02-28T22:58:45.282Z,76.10
2019-02-28T23:01:19.453Z,72.70
2019-02-28T23:03:48.852Z,71.72
2019-02-28T23:06:18.008Z,74.20
2019-02-28T23:08:47.207Z,71.25
2019-02-28T23:11:16.363Z,68.85
2019-02-28T23:13:45.526Z,71.55
2019-02-28T23:16:14.752Z,71.70
2019-02-28T23:18:43.896Z,68.62
2019-02-28T23:21:13.157Z,67.95
2019-02-28T23:23:42.366Z,66.45
2019-02-28T23:26:13.074Z,63.87
2019-02-28T23:28:48.312Z,68.55
2019-02-28T23:31:20.726Z,66.07
2019-02-28T23:33:49.861Z,67.75
2019-02-28T23:36:19.074Z,66.55
2019-02-28T23:38:48.888Z,67.60
2019-02-28T23:41:18.055Z,64.15
2019-02-28T23:43:47.205Z,67.58
2019-02-28T23:46:16.705Z,65.67
2019-02-28T23:48:47.167Z,65.25
2019-02-28T23:51:16.381Z,61.30
2019-02-28T23:53:45.614Z,62.73
2019-02-28T23:56:14.763Z,66.77
2019-02-28T23:58:43.908Z,59.00
